Time;durP1;ratioP1;P1;durP2;ratioP2;P2;SDS_P1;SDS_P2;PMS_P1;PMS_P2;Temp;Humidity;BMP_temperature;BMP_pressure;BME280_temperature;BME280_humidity;BME280_pressure;Samples;Min_cycle;Max_cycle;Signal;HPM_P1;HPM_P2
2022/05/23 00:00:13;;;;;;;7.68;5.15;;;24.10;1.00;;;;;;5015455;28;20029;-48
2022/05/23 00:02:38;;;;;;;7.25;4.75;;;24.20;1.00;;;;;;5013970;28;20041;-48
2022/05/23 00:05:06;;;;;;;6.13;5.03;;;24.10;1.00;;;;;;5015067;28;20042;-47
2022/05/23 00:07:35;;;;;;;8.60;5.70;;;24.10;1.00;;;;;;5012823;28;20065;-47
2022/05/23 00:10:01;;;;;;;6.82;4.60;;;24.10;1.00;;;;;;5015140;28;20032;-51
2022/05/23 00:12:27;;;;;;;7.05;5.40;;;23.80;1.00;;;;;;5014131;28;20387;-49
2022/05/23 00:14:53;;;;;;;7.75;5.65;;;23.60;1.00;;;;;;5009641;28;20022;-49
2022/05/23 00:17:20;;;;;;;8.88;5.68;;;23.70;1.00;;;;;;5000121;28;20396;-47
2022/05/23 00:19:47;;;;;;;8.25;5.15;;;23.70;1.00;;;;;;5014843;28;20029;-50
2022/05/23 00:22:13;;;;;;;9.40;5.53;;;23.80;1.00;;;;;;5013082;28;20036;-49
2022/05/23 00:24:41;;;;;;;6.78;5.72;;;23.70;1.00;;;;;;5014745;28;20034;-47
2022/05/23 00:27:12;;;;;;;7.45;5.32;;;23.80;1.00;;;;;;5014051;28;20387;-49
2022/05/23 00:29:38;;;;;;;6.28;4.95;;;23.90;1.00;;;;;;5014468;28;20041;-47
2022/05/23 00:44:25;;;;;;;11.68;6.28;;;24.00;1.00;;;;;;5014811;28;20091;-47
2022/05/23 00:46:55;;;;;;;9.23;5.50;;;23.80;1.00;;;;;;5013834;28;20029;-48
2022/05/23 00:49:24;;;;;;;5.53;5.03;;;23.80;1.00;;;;;;5014388;28;20037;-47
2022/05/23 00:51:50;;;;;;;5.90;4.65;;;23.80;1.00;;;;;;5013499;28;20120;-48
2022/05/23 00:54:18;;;;;;;8.30;5.18;;;23.70;1.00;;;;;;5046027;28;20084;-51
2022/05/23 00:56:46;;;;;;;9.20;5.32;;;23.70;1.00;;;;;;5011947;28;20029;-48
2022/05/23 00:59:16;;;;;;;7.15;4.95;;;23.90;1.00;;;;;;5014204;28;20029;-53
2022/05/23 01:01:43;;;;;;;9.63;4.93;;;24.00;1.00;;;;;;5013350;28;20037;-48
2022/05/23 01:04:08;;;;;;;5.40;4.50;;;24.10;1.00;;;;;;5013942;28;20049;-53
2022/05/23 01:06:35;;;;;;;5.50;4.93;;;24.10;1.00;;;;;;5012262;28;20021;-48
2022/05/23 01:09:01;;;;;;;5.88;4.90;;;24.00;1.00;;;;;;5012178;28;20080;-48
2022/05/23 01:11:27;;;;;;;8.18;5.85;;;23.90;1.00;;;;;;5012583;28;20026;-54
2022/05/23 01:13:54;;;;;;;7.35;5.10;;;23.90;1.00;;;;;;5011752;28;20026;-47
2022/05/23 01:16:24;;;;;;;5.72;4.90;;;23.90;1.00;;;;;;5004811;28;20036;-49
2022/05/23 01:18:50;;;;;;;7.15;5.00;;;23.80;1.00;;;;;;5013144;28;20076;-48
2022/05/23 01:21:42;;;;;;;6.43;5.18;;;23.90;1.00;;;;;;5012668;28;20417;-48
2022/05/23 01:24:32;;;;;;;5.95;4.90;;;23.90;1.00;;;;;;5012434;28;20041;-51
2022/05/23 01:26:59;;;;;;;4.85;4.45;;;24.00;1.00;;;;;;5012869;28;20049;-48
2022/05/23 01:29:43;;;;;;;5.93;4.53;;;23.90;1.00;;;;;;5013937;28;20042;-52
2022/05/23 01:32:09;;;;;;;5.72;4.13;;;23.90;1.00;;;;;;5012927;28;20476;-48
2022/05/23 01:34:35;;;;;;;6.60;4.40;;;24.00;1.00;;;;;;5013417;28;20109;-49
2022/05/23 01:37:01;;;;;;;6.68;4.45;;;24.00;1.00;;;;;;5008465;28;20029;-51
2022/05/23 01:39:27;;;;;;;7.07;4.95;;;23.90;1.00;;;;;;5013769;28;20051;-47
2022/05/23 01:41:52;;;;;;;9.10;5.45;;;23.60;1.00;;;;;;5013091;28;20502;-52
2022/05/23 01:44:18;;;;;;;5.93;5.32;;;23.60;1.00;;;;;;5012289;28;20061;-49
2022/05/23 01:46:43;;;;;;;8.32;4.97;;;23.70;1.00;;;;;;5012871;28;20034;-49
2022/05/23 01:49:09;;;;;;;6.38;4.63;;;23.80;1.00;;;;;;5012610;28;20030;-49
2022/05/23 01:54:57;;;;;;;8.13;5.20;;;23.90;1.00;;;;;;5004307;28;20394;-47
2022/05/23 01:57:22;;;;;;;5.70;5.07;;;24.00;1.00;;;;;;5009735;28;20034;-47
2022/05/23 02:02:32;;;;;;;7.22;5.15;;;23.80;1.00;;;;;;5012847;28;20164;-48
2022/05/23 02:04:58;;;;;;;7.93;5.25;;;23.90;1.00;;;;;;5012539;28;20080;-49
2022/05/23 02:07:24;;;;;;;6.32;4.93;;;23.80;1.00;;;;;;5007220;28;20038;-48
2022/05/23 02:09:49;;;;;;;9.18;5.47;;;23.70;1.00;;;;;;4999327;28;20025;-51
2022/05/23 02:12:17;;;;;;;8.85;5.28;;;23.60;1.00;;;;;;5005002;28;20048;-51
2022/05/23 02:14:44;;;;;;;6.57;5.32;;;23.80;1.00;;;;;;5013254;28;20046;-48
2022/05/23 02:17:11;;;;;;;6.72;6.03;;;23.80;1.00;;;;;;5012149;28;20030;-48
2022/05/23 02:19:37;;;;;;;7.95;6.38;;;23.80;1.00;;;;;;5012963;28;20021;-49
2022/05/23 02:22:04;;;;;;;8.48;5.50;;;23.80;1.00;;;;;;4998826;28;20037;-50
2022/05/23 02:24:29;;;;;;;12.10;6.40;;;23.80;1.00;;;;;;5005118;28;20399;-47
2022/05/23 02:26:55;;;;;;;7.03;5.60;;;23.80;1.00;;;;;;5011837;28;20030;-49
2022/05/23 02:29:22;;;;;;;6.45;5.80;;;23.70;1.00;;;;;;5013100;28;20022;-48
2022/05/23 02:31:48;;;;;;;7.43;6.13;;;23.80;1.00;;;;;;5011296;28;20048;-50
2022/05/23 02:34:15;;;;;;;7.88;5.72;;;23.90;1.00;;;;;;5010599;28;20068;-51
2022/05/23 02:36:41;;;;;;;10.52;5.97;;;23.90;1.00;;;;;;5011712;28;20030;-50
2022/05/23 02:39:07;;;;;;;6.82;5.57;;;23.80;1.00;;;;;;5012849;28;20115;-50
2022/05/23 02:41:34;;;;;;;10.60;6.32;;;23.80;1.00;;;;;;5011877;28;20029;-51
2022/05/23 02:44:00;;;;;;;8.20;5.88;;;23.90;1.00;;;;;;5011672;28;20022;-49
2022/05/23 02:46:26;;;;;;;7.53;5.68;;;23.90;1.00;;;;;;5011596;28;20030;-49
2022/05/23 02:48:52;;;;;;;6.25;5.45;;;23.90;1.00;;;;;;5012785;28;20025;-51
2022/05/23 02:51:17;;;;;;;9.65;5.75;;;23.80;1.00;;;;;;5010601;28;20088;-50
2022/05/23 03:03:49;;;;;;;5.97;5.38;;;23.70;1.00;;;;;;5000543;28;20112;-47
2022/05/23 03:06:15;;;;;;;8.18;5.68;;;23.80;1.00;;;;;;5011279;28;20038;-46
2022/05/23 03:08:41;;;;;;;7.80;5.07;;;23.80;1.00;;;;;;5011071;28;20357;-47
2022/05/23 03:11:08;;;;;;;6.93;5.38;;;23.80;1.00;;;;;;5012810;28;20041;-47
2022/05/23 03:13:37;;;;;;;6.15;5.55;;;23.80;1.00;;;;;;5010952;28;20026;-47
2022/05/23 03:16:12;;;;;;;5.82;5.10;;;23.80;1.00;;;;;;5012509;28;20056;-53
2022/05/23 03:18:38;;;;;;;6.13;5.63;;;23.80;1.00;;;;;;5011367;28;20038;-53
2022/05/23 03:21:06;;;;;;;6.25;5.38;;;23.60;1.00;;;;;;5016917;28;20400;-48
2022/05/23 03:29:09;;;;;;;8.90;5.82;;;23.80;1.00;;;;;;5014957;28;20072;-50
2022/05/23 03:31:35;;;;;;;8.55;6.05;;;23.80;1.00;;;;;;5013645;28;20053;-50
2022/05/23 03:34:01;;;;;;;8.15;5.90;;;23.80;1.00;;;;;;5014501;28;20057;-49
2022/05/23 03:36:26;;;;;;;9.00;5.82;;;23.80;1.00;;;;;;5016071;28;20026;-50
2022/05/23 03:46:24;;;;;;;5.88;5.28;;;23.80;1.00;;;;;;5004637;28;20063;-48
2022/05/23 03:48:50;;;;;;;6.82;5.30;;;23.70;1.00;;;;;;5010838;28;20120;-46
2022/05/23 03:51:15;;;;;;;5.30;4.68;;;23.80;1.00;;;;;;5016072;28;20161;-46
2022/05/23 03:53:41;;;;;;;6.20;5.45;;;23.80;1.00;;;;;;5015480;28;20029;-53
2022/05/23 03:56:07;;;;;;;6.10;5.45;;;23.80;1.00;;;;;;5014177;28;20034;-53
2022/05/23 03:58:42;;;;;;;6.57;5.25;;;23.70;1.00;;;;;;5014519;28;20034;-49
2022/05/23 04:01:13;;;;;;;6.57;5.88;;;23.50;1.00;;;;;;5013781;28;20052;-47
2022/05/23 04:03:40;;;;;;;6.32;4.93;;;23.60;1.00;;;;;;5013913;28;20047;-47
2022/05/23 04:06:05;;;;;;;8.23;4.97;;;23.70;1.00;;;;;;5014253;28;20030;-50
2022/05/23 04:08:31;;;;;;;6.63;5.40;;;23.70;1.00;;;;;;5014226;28;20045;-48
2022/05/23 04:10:57;;;;;;;6.65;5.07;;;23.60;1.00;;;;;;5013712;28;20026;-47
2022/05/23 04:13:24;;;;;;;6.28;5.50;;;23.60;1.00;;;;;;5014744;28;20072;-46
2022/05/23 04:15:50;;;;;;;5.25;4.70;;;23.60;1.00;;;;;;5013925;28;20046;-49
2022/05/23 04:18:16;;;;;;;4.90;4.50;;;23.60;1.00;;;;;;5013602;28;20406;-50
2022/05/23 04:20:42;;;;;;;6.78;5.00;;;23.70;1.00;;;;;;5013411;28;20104;-50
2022/05/23 04:23:09;;;;;;;7.78;4.80;;;23.40;1.00;;;;;;5015252;28;20029;-49
2022/05/23 04:25:42;;;;;;;5.65;4.40;;;23.20;1.00;;;;;;5014041;28;20040;-48
2022/05/23 04:28:09;;;;;;;8.27;4.72;;;23.30;1.00;;;;;;5014746;28;20117;-46
2022/05/23 04:30:35;;;;;;;6.05;4.30;;;23.40;1.00;;;;;;5012465;28;20053;-49
2022/05/23 04:35:45;;;;;;;;;;;23.50;1.00;;;;;;5014140;28;20080;-47
2022/05/23 04:38:11;;;;;;;7.10;4.05;;;23.60;1.00;;;;;;5014401;28;20379;-50
2022/05/23 04:40:38;;;;;;;4.45;4.00;;;23.50;1.00;;;;;;5014125;28;20026;-49
2022/05/23 04:43:04;;;;;;;5.47;4.90;;;23.50;1.00;;;;;;5013798;28;20213;-47
2022/05/23 04:45:30;;;;;;;8.88;3.97;;;23.50;1.00;;;;;;5011999;28;20388;-49
2022/05/23 04:50:40;;;;;;;6.85;4.13;;;23.60;1.00;;;;;;5014001;28;20048;-46
2022/05/23 04:53:07;;;;;;;5.68;4.50;;;23.70;1.00;;;;;;5014462;28;20033;-49
2022/05/23 04:55:33;;;;;;;7.43;4.63;;;23.80;1.00;;;;;;5013031;28;20018;-48
2022/05/23 04:57:59;;;;;;;8.15;4.47;;;23.70;1.00;;;;;;5003263;28;20070;-49
2022/05/23 05:00:29;;;;;;;6.47;4.57;;;23.80;1.00;;;;;;4996722;28;20030;-48
2022/05/23 05:02:59;;;;;;;4.50;4.13;;;23.80;1.00;;;;;;5014529;28;20079;-48
2022/05/23 05:05:28;;;;;;;5.75;4.88;;;23.70;1.00;;;;;;5013316;28;20042;-49
2022/05/23 05:07:55;;;;;;;9.77;4.50;;;23.50;1.00;;;;;;5014257;28;20167;-49
2022/05/23 05:10:23;;;;;;;9.65;4.85;;;23.50;1.00;;;;;;5013375;28;20495;-48
2022/05/23 05:12:50;;;;;;;5.70;4.20;;;23.60;1.00;;;;;;5014230;28;20491;-47
2022/05/23 05:15:16;;;;;;;5.57;4.40;;;23.70;1.00;;;;;;4999944;28;20027;-51
2022/05/23 05:17:42;;;;;;;4.18;3.80;;;23.80;1.00;;;;;;5000292;28;20127;-49
2022/05/23 05:20:08;;;;;;;5.57;3.92;;;23.70;1.00;;;;;;5012861;28;20026;-48
2022/05/23 05:22:36;;;;;;;5.07;3.60;;;23.70;1.00;;;;;;5013155;28;20037;-49
2022/05/23 05:25:05;;;;;;;10.30;3.97;;;23.80;1.00;;;;;;5012869;28;20479;-49
2022/05/23 05:27:31;;;;;;;6.53;4.13;;;23.80;1.00;;;;;;5013785;28;20033;-50
2022/05/23 05:29:57;;;;;;;4.85;3.72;;;23.80;1.00;;;;;;5011770;28;20038;-49
2022/05/23 05:32:36;;;;;;;4.00;3.60;;;23.80;1.00;;;;;;5013642;28;20022;-52
2022/05/23 05:35:38;;;;;;;4.65;3.97;;;23.80;1.00;;;;;;5012665;28;20030;-47
2022/05/23 05:38:22;;;;;;;4.25;3.83;;;23.90;1.00;;;;;;5000584;28;20053;-51
2022/05/23 05:40:54;;;;;;;11.07;4.60;;;24.00;1.00;;;;;;5010976;28;20033;-47
2022/05/23 05:43:26;;;;;;;6.38;4.15;;;23.90;1.00;;;;;;5013872;28;20022;-51
2022/05/23 05:46:08;;;;;;;5.80;4.20;;;24.00;1.00;;;;;;5012719;28;20022;-52
2022/05/23 05:48:40;;;;;;;8.15;4.40;;;23.90;1.00;;;;;;5011109;28;20026;-47
2022/05/23 05:51:06;;;;;;;6.57;4.25;;;23.80;1.00;;;;;;5007267;28;20121;-47
2022/05/23 05:53:33;;;;;;;4.53;3.85;;;24.10;1.00;;;;;;5012441;28;20026;-46
2022/05/23 05:56:00;;;;;;;5.80;3.95;;;23.90;1.00;;;;;;5012107;28;20499;-47
2022/05/23 05:58:27;;;;;;;4.47;3.75;;;24.00;1.00;;;;;;5012906;28;20038;-52
2022/05/23 06:00:53;;;;;;;4.65;3.75;;;23.80;1.00;;;;;;5011157;28;20026;-47
2022/05/23 06:03:18;;;;;;;5.30;3.53;;;23.90;1.00;;;;;;5013118;28;20112;-47
2022/05/23 06:11:26;;;;;;;6.38;3.70;;;24.00;1.00;;;;;;5012263;28;20048;-49
2022/05/23 06:13:53;;;;;;;3.70;3.20;;;23.90;1.00;;;;;;5011716;28;20026;-48
2022/05/23 06:16:19;;;;;;;11.82;3.97;;;23.80;1.00;;;;;;5011842;28;20113;-50
2022/05/23 06:18:45;;;;;;;3.83;3.42;;;23.90;1.00;;;;;;5012954;28;20120;-52
2022/05/23 06:21:12;;;;;;;6.93;4.20;;;23.80;1.00;;;;;;5010329;28;20022;-51
2022/05/23 06:23:39;;;;;;;8.15;3.53;;;23.80;1.00;;;;;;5012767;28;20484;-48
2022/05/23 06:26:04;;;;;;;7.22;4.00;;;23.90;1.00;;;;;;5010600;28;20052;-50
2022/05/23 06:28:31;;;;;;;7.25;3.40;;;24.10;1.00;;;;;;5012214;28;20034;-50
2022/05/23 06:30:57;;;;;;;3.50;2.95;;;24.20;1.00;;;;;;5011268;28;20072;-48
2022/05/23 06:33:24;;;;;;;4.20;3.30;;;24.20;1.00;;;;;;5012227;28;20112;-49
2022/05/23 06:35:50;;;;;;;4.05;3.67;;;24.10;1.00;;;;;;5011976;28;20026;-52
2022/05/23 06:38:16;;;;;;;6.47;3.20;;;24.10;1.00;;;;;;5012560;28;20133;-50
2022/05/23 06:40:42;;;;;;;6.43;4.13;;;24.20;1.00;;;;;;5011847;28;20067;-48
2022/05/23 06:43:08;;;;;;;5.82;3.45;;;24.30;1.00;;;;;;5009990;28;20034;-51
2022/05/23 06:45:34;;;;;;;3.97;3.58;;;24.40;1.00;;;;;;5011570;28;20029;-52
2022/05/23 06:48:00;;;;;;;8.90;3.75;;;24.40;1.00;;;;;;5012853;28;20030;-49
2022/05/23 06:50:26;;;;;;;4.78;3.50;;;24.50;1.00;;;;;;5010345;28;20383;-53
2022/05/23 06:52:52;;;;;;;5.13;3.40;;;24.40;1.00;;;;;;5012725;28;20037;-52
2022/05/23 06:55:18;;;;;;;4.72;4.05;;;24.50;1.00;;;;;;5014161;28;20434;-54
2022/05/23 06:57:43;;;;;;;5.68;3.50;;;24.40;1.00;;;;;;5013560;28;20073;-50
2022/05/23 07:00:10;;;;;;;4.72;3.90;;;24.50;1.00;;;;;;5015636;28;20103;-48
2022/05/23 07:02:36;;;;;;;9.65;4.25;;;24.50;1.00;;;;;;5015599;28;20035;-50
2022/05/23 07:13:20;;;;;;;7.85;4.97;;;24.50;1.00;;;;;;5016253;28;19912;-48
2022/05/23 07:15:48;;;;;;;6.30;4.30;;;24.50;1.00;;;;;;5015593;28;20038;-47
2022/05/23 07:18:19;;;;;;;5.65;3.65;;;24.50;1.00;;;;;;5016504;28;20045;-47
2022/05/23 07:20:45;;;;;;;5.00;4.22;;;24.50;1.00;;;;;;5014673;28;20034;-48
2022/05/23 07:23:11;;;;;;;4.70;3.83;;;24.50;1.00;;;;;;5015184;28;20403;-47
2022/05/23 07:25:38;;;;;;;8.35;4.60;;;24.60;1.00;;;;;;5015091;28;20041;-51
2022/05/23 07:28:04;;;;;;;6.10;4.60;;;24.50;1.00;;;;;;5014847;28;20032;-47
2022/05/23 07:30:30;;;;;;;5.00;4.50;;;24.50;1.00;;;;;;5015132;28;20030;-47
2022/05/23 07:32:57;;;;;;;11.07;5.28;;;24.60;1.00;;;;;;5014946;28;20108;-49
2022/05/23 07:35:23;;;;;;;9.82;4.63;;;24.60;1.00;;;;;;5030792;28;20041;-48
2022/05/23 07:37:49;;;;;;;9.55;5.03;;;24.60;1.00;;;;;;5016529;28;20109;-49
2022/05/23 07:40:15;;;;;;;5.43;4.47;;;24.60;1.00;;;;;;5009806;28;20069;-49
2022/05/23 07:42:41;;;;;;;6.97;4.97;;;24.70;1.00;;;;;;4994835;28;20098;-50
2022/05/23 07:45:07;;;;;;;8.20;4.90;;;24.70;1.00;;;;;;5002717;28;20472;-51
2022/05/23 07:47:33;;;;;;;7.00;4.50;;;24.70;1.00;;;;;;5015730;28;20048;-49
2022/05/23 07:49:59;;;;;;;7.03;4.50;;;24.70;1.00;;;;;;5014813;28;20022;-51
2022/05/23 07:52:25;;;;;;;5.70;4.85;;;24.80;1.00;;;;;;5014445;28;20025;-51
2022/05/23 08:00:33;;;;;;;7.03;4.28;;;24.80;1.00;;;;;;5012191;28;20129;-50
2022/05/23 08:03:17;;;;;;;5.40;4.32;;;24.90;1.00;;;;;;5011948;28;20094;-51
2022/05/23 08:05:43;;;;;;;7.97;4.40;;;24.90;1.00;;;;;;5003937;28;20133;-50
2022/05/23 08:08:09;;;;;;;5.43;4.07;;;25.00;1.00;;;;;;5015056;28;20539;-51
2022/05/23 08:10:35;;;;;;;8.52;4.72;;;25.00;1.00;;;;;;5014431;28;20116;-49
2022/05/23 08:13:08;;;;;;;8.27;4.63;;;25.10;1.00;;;;;;5014436;28;20037;-48
2022/05/23 08:15:39;;;;;;;9.13;4.38;;;25.20;1.00;;;;;;5006473;28;20120;-53
2022/05/23 08:18:07;;;;;;;6.35;4.43;;;25.20;1.00;;;;;;4994160;28;20061;-52
2022/05/23 08:20:34;;;;;;;5.72;4.18;;;25.20;1.00;;;;;;5002359;28;20030;-50
2022/05/23 08:23:00;;;;;;;12.32;5.28;;;25.20;1.00;;;;;;5015107;28;20029;-49
2022/05/23 08:25:26;;;;;;;6.45;5.10;;;25.30;1.00;;;;;;5014283;28;20034;-50
2022/05/23 08:27:55;;;;;;;7.70;4.72;;;25.40;1.00;;;;;;5009915;28;20061;-46
2022/05/23 08:30:21;;;;;;;9.35;4.60;;;25.40;1.00;;;;;;5013643;28;20439;-48
2022/05/23 08:32:47;;;;;;;7.20;4.40;;;25.40;1.00;;;;;;5003647;28;20027;-46
2022/05/23 08:35:14;;;;;;;8.48;4.47;;;25.40;1.00;;;;;;4999195;28;20041;-47
2022/05/23 08:37:40;;;;;;;6.85;4.85;;;25.50;1.00;;;;;;5014790;28;20113;-48
2022/05/23 08:40:07;;;;;;;8.25;4.57;;;25.50;1.00;;;;;;5012652;28;20068;-50
2022/05/23 08:42:56;;;;;;;6.32;3.95;;;25.50;1.00;;;;;;5014628;28;20029;-49
2022/05/23 08:45:23;;;;;;;6.53;4.63;;;25.60;1.00;;;;;;5013841;28;20030;-53
2022/05/23 08:48:10;;;;;;;5.40;3.83;;;25.50;1.00;;;;;;5014851;28;20052;-53
2022/05/23 08:50:59;;;;;;;5.75;4.57;;;25.60;1.00;;;;;;5013602;28;20037;-49
2022/05/23 08:53:43;;;;;;;5.75;3.72;;;25.80;1.00;;;;;;5014812;28;20049;-51
2022/05/23 08:56:29;;;;;;;7.00;3.90;;;25.80;1.00;;;;;;5011261;28;20038;-52
2022/05/23 08:58:58;;;;;;;6.10;4.53;;;25.80;1.00;;;;;;5013640;28;20107;-49
2022/05/23 09:01:54;;;;;;;12.63;4.72;;;25.90;1.00;;;;;;5013235;28;20088;-50
2022/05/23 09:04:32;;;;;;;8.38;4.03;;;25.90;1.00;;;;;;5012749;28;20507;-48
2022/05/23 09:06:59;;;;;;;8.15;4.50;;;26.20;1.00;;;;;;5012997;28;20038;-50
2022/05/23 09:09:27;;;;;;;8.15;3.60;;;26.30;1.00;;;;;;5014167;28;20463;-47
2022/05/23 09:12:01;;;;;;;9.18;4.70;;;26.40;1.00;;;;;;5012953;28;20053;-52
2022/05/23 09:14:26;;;;;;;5.95;4.35;;;26.40;1.00;;;;;;5014185;28;20475;-52
2022/05/23 09:16:56;;;;;;;7.35;4.00;;;26.60;1.00;;;;;;5009615;28;20041;-52
2022/05/23 09:19:38;;;;;;;8.80;4.10;;;26.60;1.00;;;;;;5013817;28;20472;-48
2022/05/23 09:22:14;;;;;;;7.55;3.72;;;26.70;1.00;;;;;;4995685;28;20380;-49
2022/05/23 09:24:42;;;;;;;6.63;4.00;;;26.80;1.00;;;;;;4999347;28;20149;-47
2022/05/23 09:27:38;;;;;;;6.90;4.07;;;26.70;1.00;;;;;;5013125;28;20038;-50
2022/05/23 09:30:17;;;;;;;9.55;3.63;;;26.70;1.00;;;;;;5013189;28;20026;-50
2022/05/23 09:32:57;;;;;;;6.80;3.60;;;26.70;1.00;;;;;;5013963;28;20034;-48
2022/05/23 09:35:57;;;;;;;8.27;3.83;;;26.70;1.00;;;;;;5012792;28;20049;-48
2022/05/23 09:38:27;;;;;;;8.13;3.63;;;26.90;1.00;;;;;;5003206;28;20121;-51
2022/05/23 09:40:56;;;;;;;6.85;4.05;;;26.90;1.00;;;;;;5013108;28;20029;-50
2022/05/23 09:49:12;;;;;;;8.00;3.30;;;26.80;1.00;;;;;;5013660;28;20059;-49
2022/05/23 09:51:50;;;;;;;9.25;4.30;;;26.90;1.00;;;;;;5012648;28;20033;-47
2022/05/23 09:54:33;;;;;;;8.30;4.10;;;27.10;1.00;;;;;;5011393;28;20049;-47
2022/05/23 09:57:08;;;;;;;6.18;4.20;;;27.10;1.00;;;;;;5012825;28;20076;-49
2022/05/23 09:59:37;;;;;;;9.73;4.65;;;27.00;1.00;;;;;;5013409;28;20484;-50
2022/05/23 10:02:34;;;;;;;5.18;4.15;;;27.10;1.00;;;;;;5012299;28;20057;-49
2022/05/23 10:05:00;;;;;;;5.18;3.75;;;26.90;1.00;;;;;;5003043;28;20055;-52
2022/05/23 10:07:32;;;;;;;7.68;5.00;;;27.00;1.00;;;;;;5012321;28;20049;-51
2022/05/23 10:10:05;;;;;;;9.77;4.15;;;27.00;1.00;;;;;;5011922;28;20029;-49
2022/05/23 10:12:32;;;;;;;6.90;3.92;;;27.10;1.00;;;;;;5012970;28;20026;-52
2022/05/23 10:15:20;;;;;;;7.85;4.32;;;27.10;1.00;;;;;;5013265;28;20030;-51
2022/05/23 10:18:05;;;;;;;12.52;4.72;;;27.00;1.00;;;;;;4998902;28;20049;-47
2022/05/23 10:20:42;;;;;;;10.00;5.22;;;27.10;1.00;;;;;;5012606;28;20084;-47
2022/05/23 10:23:21;;;;;;;7.25;4.35;;;27.10;1.00;;;;;;5011490;28;20057;-47
2022/05/23 10:25:52;;;;;;;5.15;4.07;;;27.20;1.00;;;;;;5012351;28;20025;-47
2022/05/23 10:28:32;;;;;;;6.07;3.97;;;27.20;1.00;;;;;;5013272;28;20037;-47
2022/05/23 10:31:35;;;;;;;7.72;4.70;;;27.30;1.00;;;;;;5015790;28;20022;-47
2022/05/23 10:34:23;;;;;;;7.78;4.10;;;27.40;1.00;;;;;;5006510;28;20034;-47
2022/05/23 10:36:53;;;;;;;9.88;4.30;;;27.40;1.00;;;;;;5016118;28;20069;-50
2022/05/23 10:42:16;;;;;;;6.85;3.55;;;27.50;1.00;;;;;;5015712;28;20510;-46
2022/05/23 10:45:09;;;;;;;5.57;3.83;;;27.70;1.00;;;;;;5016804;28;20046;-47
2022/05/23 10:48:04;;;;;;;6.40;3.95;;;27.80;1.00;;;;;;5016098;28;20096;-50
2022/05/23 10:50:57;;;;;;;8.20;3.88;;;27.90;1.00;;;;;;5014712;28;20396;-51
2022/05/23 10:53:45;;;;;;;6.93;4.65;;;28.00;1.00;;;;;;5017137;28;20041;-48
2022/05/23 10:56:33;;;;;;;6.47;4.45;;;27.90;1.00;;;;;;5008945;28;20376;-46
2022/05/23 10:59:05;;;;;;;29.55;21.83;;;28.00;1.00;;;;;;5012910;28;20057;-50
2022/05/23 11:01:51;;;;;;;8.82;6.82;;;28.20;1.00;;;;;;5015598;28;20112;-49
2022/05/23 11:04:29;;;;;;;10.20;7.00;;;28.30;1.00;;;;;;5013997;28;20050;-47
2022/05/23 11:07:11;;;;;;;7.38;5.03;;;28.40;1.00;;;;;;5015764;28;20038;-48
2022/05/23 11:10:01;;;;;;;12.90;5.45;;;28.40;1.00;;;;;;5015315;28;20395;-47
2022/05/23 11:12:29;;;;;;;13.90;8.45;;;28.40;1.00;;;;;;5015351;28;20038;-48
2022/05/23 11:15:24;;;;;;;9.57;4.53;;;28.50;1.00;;;;;;5016569;28;20126;-51
2022/05/23 11:18:06;;;;;;;6.43;5.18;;;28.70;1.00;;;;;;5011782;28;20122;-47
2022/05/23 11:20:36;;;;;;;8.23;4.53;;;28.70;1.00;;;;;;5003168;28;20022;-47
2022/05/23 11:23:21;;;;;;;5.40;4.00;;;28.40;1.00;;;;;;5009569;28;20141;-52
2022/05/23 11:25:51;;;;;;;8.45;4.63;;;28.40;1.00;;;;;;5015324;28;20027;-53
2022/05/23 11:34:23;;;;;;;5.22;4.55;;;28.50;1.00;;;;;;5016533;28;20127;-48
2022/05/23 11:40:09;;;;;;;12.02;4.57;;;28.20;1.00;;;;;;5015030;28;20093;-48
2022/05/23 11:42:50;;;;;;;6.35;4.35;;;28.40;1.00;;;;;;4998092;28;20508;-52
2022/05/23 11:48:41;;;;;;;8.82;5.05;;;28.40;1.00;;;;;;4998816;28;20494;-47
2022/05/23 11:51:13;;;;;;;7.45;4.32;;;28.50;1.00;;;;;;5014578;28;20100;-52
2022/05/23 11:54:00;;;;;;;7.85;5.20;;;28.50;1.00;;;;;;5015660;28;20070;-49
2022/05/23 11:56:43;;;;;;;6.40;4.63;;;28.60;1.00;;;;;;5011210;28;20129;-48
2022/05/23 11:59:29;;;;;;;7.95;4.88;;;28.50;1.00;;;;;;4995856;28;20096;-47
2022/05/23 12:02:10;;;;;;;7.22;5.20;;;28.50;1.00;;;;;;4999620;28;20046;-49
2022/05/23 12:04:56;;;;;;;9.10;5.53;;;28.60;1.00;;;;;;5014896;28;20359;-47
2022/05/23 12:07:31;;;;;;;8.68;4.85;;;28.70;1.00;;;;;;5014540;28;20041;-47
2022/05/23 12:10:22;;;;;;;6.97;4.63;;;28.70;1.00;;;;;;5014858;28;20112;-50
2022/05/23 12:13:07;;;;;;;6.72;5.13;;;28.90;1.00;;;;;;5014267;28;20163;-48
2022/05/23 12:15:42;;;;;;;6.82;5.13;;;29.10;1.00;;;;;;5012706;28;20037;-51
2022/05/23 12:18:28;;;;;;;8.60;5.22;;;29.30;1.00;;;;;;5001867;28;20041;-47
2022/05/23 12:21:06;;;;;;;11.45;5.45;;;29.60;1.00;;;;;;5012425;28;20026;-48
2022/05/23 12:23:36;;;;;;;8.80;6.32;;;29.80;1.00;;;;;;4995599;28;20045;-48
2022/05/23 12:26:11;;;;;;;7.05;6.32;;;29.60;1.00;;;;;;5000851;28;20492;-46
2022/05/23 12:28:53;;;;;;;7.95;5.20;;;29.50;1.00;;;;;;5014733;28;20041;-46
2022/05/23 12:31:27;;;;;;;10.90;6.03;;;29.40;1.00;;;;;;5014226;28;20034;-50
2022/05/23 12:34:13;;;;;;;7.45;5.22;;;29.40;1.00;;;;;;5014657;28;20384;-49
2022/05/23 12:36:50;;;;;;;5.35;4.82;;;29.40;1.00;;;;;;5011497;28;20030;-49
2022/05/23 12:39:47;;;;;;;5.22;4.72;;;29.50;1.00;;;;;;5014981;28;20030;-48
2022/05/23 12:42:35;;;;;;;9.18;5.40;;;29.40;1.00;;;;;;5012408;28;20109;-49
2022/05/23 12:45:36;;;;;;;6.68;4.75;;;29.50;1.00;;;;;;5014729;28;20120;-50
2022/05/23 12:48:23;;;;;;;6.18;4.68;;;29.60;1.00;;;;;;4933025;29;20032;-52
2022/05/23 12:51:15;;;;;;;7.28;5.50;;;29.70;1.00;;;;;;5004796;28;20034;-55
2022/05/23 12:54:17;;;;;;;6.32;4.57;;;29.80;1.00;;;;;;5001466;28;20025;-50
2022/05/23 12:57:24;;;;;;;8.93;5.28;;;29.80;1.00;;;;;;4982759;28;20395;-51
2022/05/23 13:00:34;;;;;;;7.70;5.10;;;29.70;1.00;;;;;;4975639;28;20053;-50
2022/05/23 13:03:13;;;;;;;8.18;6.38;;;29.40;1.00;;;;;;4979222;28;20057;-46
2022/05/23 13:06:00;;;;;;;6.22;5.32;;;29.50;1.00;;;;;;5014290;28;20053;-45
2022/05/23 13:08:41;;;;;;;10.07;6.13;;;29.70;1.00;;;;;;5001255;28;20072;-46
2022/05/23 13:11:16;;;;;;;6.05;5.55;;;30.10;1.00;;;;;;5012648;28;20025;-49
2022/05/23 13:13:46;;;;;;;9.02;5.85;;;30.50;1.00;;;;;;5012130;28;20037;-47
2022/05/23 13:16:17;;;;;;;5.93;4.82;;;30.50;1.00;;;;;;5011749;28;22150;-49
2022/05/23 13:24:48;;;;;;;5.30;4.85;;;31.60;1.00;;;;;;5014250;28;20041;-49
2022/05/23 13:27:01;;;;;;;5.90;5.10;;;31.60;1.00;;;;;;5012822;28;20038;-48
2022/05/23 13:29:27;;;;;;;6.22;5.63;;;32.10;1.00;;;;;;5013112;28;20022;-48
2022/05/23 13:32:03;;;;;;;7.60;5.35;;;31.90;1.00;;;;;;5012525;28;20041;-51
2022/05/23 13:34:35;;;;;;;9.27;5.57;;;31.90;1.00;;;;;;5012716;28;20037;-50
2022/05/23 13:37:02;;;;;;;9.52;5.32;;;32.30;1.00;;;;;;5009812;28;20029;-48
2022/05/23 13:39:29;;;;;;;9.52;5.15;;;33.10;1.00;;;;;;5013650;28;20041;-52
2022/05/23 13:41:56;;;;;;;10.45;5.30;;;33.30;1.00;;;;;;5012673;28;20110;-48
2022/05/23 13:44:32;;;;;;;7.57;5.20;;;33.60;1.00;;;;;;5001696;28;20089;-49
2022/05/23 13:47:13;;;;;;;7.15;5.40;;;33.70;1.00;;;;;;5001375;28;20037;-47
2022/05/23 13:50:19;;;;;;;9.15;5.10;;;33.90;1.00;;;;;;5013733;28;20032;-46
2022/05/23 13:52:50;;;;;;;7.05;5.55;;;34.00;1.00;;;;;;4994282;28;20046;-50
2022/05/23 13:55:30;;;;;;;8.55;5.22;;;34.00;1.00;;;;;;4992889;28;20046;-50
2022/05/23 13:58:03;;;;;;;8.48;4.40;;;33.00;1.00;;;;;;5008439;28;20117;-48
2022/05/23 14:00:43;;;;;;;7.22;4.78;;;32.60;1.00;;;;;;5013615;28;20030;-46
2022/05/23 14:03:17;;;;;;;6.72;4.13;;;32.00;1.00;;;;;;5012175;28;20077;-48
2022/05/23 14:05:46;;;;;;;8.32;4.57;;;31.60;1.00;;;;;;5010603;28;20408;-53
2022/05/23 14:08:15;;;;;;;8.48;4.57;;;31.40;1.00;;;;;;5012163;28;20499;-49
2022/05/23 14:10:44;;;;;;;9.95;4.85;;;31.20;1.00;;;;;;5012124;28;20030;-52
2022/05/23 14:13:11;;;;;;;8.75;4.75;;;31.00;1.00;;;;;;5011256;28;20476;-48
2022/05/23 14:15:38;;;;;;;11.25;4.38;;;30.80;1.00;;;;;;5011924;28;20026;-49
2022/05/23 14:18:13;;;;;;;7.75;4.47;;;30.70;1.00;;;;;;4995847;28;20061;-47
2022/05/23 14:20:41;;;;;;;8.32;4.93;;;30.50;1.00;;;;;;4993733;28;20030;-50
2022/05/23 14:23:06;;;;;;;8.27;4.70;;;30.40;1.00;;;;;;5004164;28;20018;-50
2022/05/23 14:25:34;;;;;;;7.45;3.92;;;30.40;1.00;;;;;;4995277;28;20461;-45
2022/05/23 14:28:13;;;;;;;4.72;4.00;;;30.30;1.00;;;;;;5003271;28;20488;-45
2022/05/23 14:31:08;;;;;;;6.15;4.13;;;30.20;1.00;;;;;;5012132;28;20018;-47
2022/05/23 14:33:39;;;;;;;6.50;3.80;;;30.20;1.00;;;;;;5010294;28;20088;-49
2022/05/23 14:36:09;;;;;;;9.05;4.38;;;30.80;1.00;;;;;;5013327;28;20073;-47
2022/05/23 14:38:38;;;;;;;7.18;3.55;;;31.60;1.00;;;;;;4997227;28;20492;-47
2022/05/23 14:41:32;;;;;;;4.95;3.63;;;31.90;1.00;;;;;;5003115;28;20080;-49
2022/05/23 14:44:05;;;;;;;;;;;32.80;1.00;;;;;;4993791;28;20489;-47
2022/05/23 14:46:33;;;;;;;4.82;3.30;;;32.90;1.00;;;;;;4994430;28;20381;-46
2022/05/23 14:49:16;;;;;;;5.80;3.47;;;32.90;1.00;;;;;;5013177;28;20034;-47
2022/05/23 14:51:44;;;;;;;4.65;3.78;;;32.90;1.00;;;;;;5011922;28;20114;-51
2022/05/23 14:57:02;;;;;;;4.50;3.50;;;32.60;1.00;;;;;;5011517;28;20092;-51
2022/05/23 15:02:27;;;;;;;5.72;3.88;;;32.80;1.00;;;;;;5012075;28;20137;-52